Date,TemperatureHighF,TemperatureAvgF,TemperatureLowF,DewpointHighF,DewpointAvgF,DewpointLowF,HumidityHigh,HumidityAvg,HumidityLow,PressureMaxIn,PressureMinIn,WindSpeedMaxMPH,WindSpeedAvgMPH,GustSpeedMaxMPH,PrecipitationSumIn
2013-7-10,87,78,74,76,73,72,94,87,70,30.02,29.97,4,0,5,0.00
2013-7-11,92,78,71,77,73,70,98,85,53,30.01,29.86,7,1,13,0.25
2013-7-12,86,78,73,77,74,72,98,90,71,29.93,29.86,5,1,7,0.01
2013-7-13,86,76,71,77,73,68,99,93,66,30.00,29.90,6,-8,11,2.74
2013-7-14,86,77,69,78,73,69,99,89,70,30.14,29.99,6,1,11,0.01
2013-7-15,87,77,70,80,74,70,98,91,66,30.19,30.11,8,1,14,0.20
2013-7-16,89,80,73,78,74,72,98,84,61,30.22,30.16,10,1,12,0.00
2013-7-17,91,80,72,77,73,68,99,81,50,30.22,30.09,5,1,9,0.00
2013-7-18,90,79,70,76,72,69,99,82,57,30.14,30.04,7,1,7,0.00
2013-7-19,89,77,70,76,72,69,99,86,59,30.12,30.03,6,1,10,0.24
2013-7-20,84,74,71,77,72,70,98,95,76,30.09,30.00,5,1,10,1.19
2013-7-21,90,77,71,78,74,71,98,89,61,30.09,29.99,8,1,11,0.08
2013-7-22,90,78,73,76,74,71,98,87,58,30.09,29.99,11,1,15,0.19
2013-7-23,91,79,74,80,74,71,93,85,65,30.01,29.86,8,2,11,0.00
2013-7-24,89,80,72,77,73,70,94,81,63,29.89,29.78,9,2,13,0.00
2013-7-25,89,78,71,78,74,70,96,86,65,29.95,29.81,6,1,6,0.00
2013-7-26,92,79,73,79,75,70,98,87,61,30.01,29.93,8,1,11,0.00
2013-7-27,91,79,73,80,75,73,99,89,62,30.01,29.89,5,0,11,0.43
2013-7-28,90,79,73,76,73,70,98,84,53,30.03,29.91,4,0,6,0.00
2013-7-29,93,81,71,78,73,69,98,80,50,30.14,30.01,7,1,9,0.00
2013-7-30,94,80,72,80,74,71,98,85,50,30.16,30.06,5,1,9,0.58
2013-7-31,90,77,73,80,74,72,99,93,68,30.12,30.01,6,0,14,2.49